Terminal Aerodrome Forecast
Issued by NWS Northern Indiana

Home | Current Version | Previous Version | Text Only | Print | Product List | Glossary Off
Versions: 1 2 3 4 5 6 7 8 9 10 11 12 13

000
FTUS43 KIWX 261700
TAFFWA
TAF
KFWA 261720Z 2618/2718 03009KT P6SM BKN030
     FM270000 34004KT P6SM SCT030
     FM271500 27007KT P6SM SCT030=

USA.gov is the U.S. government's official web portal to all federal, state and local government web resources and services.